General Aviation Weather

Text Reports

Enter one or more of the following location identifiers separated by a space:

Zip Code, Four-Character ICAO or Three-Character IATA airport codes.

METAR - Aviation Routine Weather Report
KOMH - Orange, Virginia
Updated at 3:15 PM GMT on February 07, 2016 (10:15 AM EST):
METAR KOMH 071515Z AUTO 31010KT 10SM CLR 02/M04 A3016 RMK AO2
TAF - Terminal Area Forecast
KOMH - Orange, Virginia
Updated at 3:15 PM GMT on February 07, 2016 (10:15 AM EST):
No TAF is currently available for this location.
Decoded:
No decoded TAF is available.
PIREP - Pilot Weather Report
KOMH - Orange, Virginia
Updated at 3:15 PM GMT on February 07, 2016 (10:15 AM EST):
No PIREP is currently available for this location.
AIRMET - Airmens Meteorological Information
KOMH - Orange, Virginia
Updated at 3:15 PM GMT on February 07, 2016 (10:15 AM EST):
No AIRMET is currently available for this location.
SIGMET - Significant Meteorological Information
KOMH - Orange, Virginia
Updated at 3:15 PM GMT on February 07, 2016 (10:15 AM EST):
No SIGMET is currently available for this location.
NOTAM - Notice to Airmen
KOMH - Orange, Virginia
Updated at 3:15 PM GMT on February 07, 2016 (10:15 AM EST):
No NOTAM is currently available for this location.
Forecast Area
KOMH - Orange, Virginia
Updated at 3:15 PM GMT on February 07, 2016 (10:15 AM EST):
No NOTAM is currently available for this location.
Aviation Weather Maps